sensor_id;sensor_type;location;lat;lon;timestamp;pressure;altitude;pressure_sealevel;temperature
43802;BMP280;29429;51.074;13.764;2023-09-07T00:01:48;100725.06;;;16.83
43802;BMP280;29429;51.074;13.764;2023-09-07T00:04:15;100725.72;;;16.78
43802;BMP280;29429;51.074;13.764;2023-09-07T00:06:43;100725.72;;;16.78
43802;BMP280;29429;51.074;13.764;2023-09-07T00:09:11;100719.72;;;16.76
43802;BMP280;29429;51.074;13.764;2023-09-07T00:11:39;100721.81;;;16.74
43802;BMP280;29429;51.074;13.764;2023-09-07T00:14:06;100723.50;;;16.69
43802;BMP280;29429;51.074;13.764;2023-09-07T00:16:34;100728.31;;;16.67
43802;BMP280;29429;51.074;13.764;2023-09-07T00:19:05;100727.91;;;16.63
43802;BMP280;29429;51.074;13.764;2023-09-07T00:21:33;100726.72;;;16.59
43802;BMP280;29429;51.074;13.764;2023-09-07T00:24:00;100730.44;;;16.58
43802;BMP280;29429;51.074;13.764;2023-09-07T00:26:33;100730.88;;;16.55
43802;BMP280;29429;51.074;13.764;2023-09-07T00:29:00;100733.97;;;16.52
43802;BMP280;29429;51.074;13.764;2023-09-07T00:31:28;100735.03;;;16.51
43802;BMP280;29429;51.074;13.764;2023-09-07T00:33:57;100738.16;;;16.48
43802;BMP280;29429;51.074;13.764;2023-09-07T00:36:25;100732.38;;;16.44
43802;BMP280;29429;51.074;13.764;2023-09-07T00:38:52;100742.34;;;16.44
43802;BMP280;29429;51.074;13.764;2023-09-07T00:41:20;100737.81;;;16.38
43802;BMP280;29429;51.074;13.764;2023-09-07T00:43:47;100735.56;;;16.35
43802;BMP280;29429;51.074;13.764;2023-09-07T00:46:15;100738.69;;;16.32
43802;BMP280;29429;51.074;13.764;2023-09-07T00:48:43;100747.03;;;16.24
43802;BMP280;29429;51.074;13.764;2023-09-07T00:51:11;100744.16;;;16.19
43802;BMP280;29429;51.074;13.764;2023-09-07T00:53:39;100744.38;;;16.17
43802;BMP280;29429;51.074;13.764;2023-09-07T00:56:07;100732.19;;;16.15
43802;BMP280;29429;51.074;13.764;2023-09-07T00:58:37;100730.53;;;16.14
43802;BMP280;29429;51.074;13.764;2023-09-07T01:01:04;100733.44;;;16.12
43802;BMP280;29429;51.074;13.764;2023-09-07T01:03:32;100728.50;;;16.09
43802;BMP280;29429;51.074;13.764;2023-09-07T01:06:20;100729.13;;;16.05
43802;BMP280;29429;51.074;13.764;2023-09-07T01:08:51;100727.69;;;16.02
43802;BMP280;29429;51.074;13.764;2023-09-07T01:11:22;100726.88;;;16.02
43802;BMP280;29429;51.074;13.764;2023-09-07T01:13:53;100721.53;;;15.95
43802;BMP280;29429;51.074;13.764;2023-09-07T01:16:23;100725.47;;;15.93
43802;BMP280;29429;51.074;13.764;2023-09-07T01:18:52;100728.41;;;15.91
43802;BMP280;29429;51.074;13.764;2023-09-07T01:21:21;100722.19;;;15.91
43802;BMP280;29429;51.074;13.764;2023-09-07T01:23:49;100725.72;;;15.91
43802;BMP280;29429;51.074;13.764;2023-09-07T01:26:17;100723.63;;;15.87
43802;BMP280;29429;51.074;13.764;2023-09-07T01:28:45;100724.47;;;15.87
43802;BMP280;29429;51.074;13.764;2023-09-07T01:31:12;100723.44;;;15.88
43802;BMP280;29429;51.074;13.764;2023-09-07T01:33:40;100721.78;;;15.87
43802;BMP280;29429;51.074;13.764;2023-09-07T01:36:07;100720.13;;;15.86
43802;BMP280;29429;51.074;13.764;2023-09-07T01:38:35;100724.06;;;15.83
43802;BMP280;29429;51.074;13.764;2023-09-07T01:41:03;100726.38;;;15.80
43802;BMP280;29429;51.074;13.764;2023-09-07T01:43:30;100727.22;;;15.80
43802;BMP280;29429;51.074;13.764;2023-09-07T01:45:58;100721.63;;;15.75
43802;BMP280;29429;51.074;13.764;2023-09-07T01:48:26;100724.97;;;15.71
43802;BMP280;29429;51.074;13.764;2023-09-07T01:50:53;100728.72;;;15.70
43802;BMP280;29429;51.074;13.764;2023-09-07T01:53:21;100726.63;;;15.65
43802;BMP280;29429;51.074;13.764;2023-09-07T01:55:53;100727.69;;;15.64
43802;BMP280;29429;51.074;13.764;2023-09-07T01:58:21;100727.88;;;15.63
43802;BMP280;29429;51.074;13.764;2023-09-07T02:00:48;100727.28;;;15.61
43802;BMP280;29429;51.074;13.764;2023-09-07T02:03:16;100721.31;;;15.59
43802;BMP280;29429;51.074;13.764;2023-09-07T02:05:45;100723.16;;;15.58
43802;BMP280;29429;51.074;13.764;2023-09-07T02:08:13;100724.19;;;15.57
43802;BMP280;29429;51.074;13.764;2023-09-07T02:10:40;100723.59;;;15.55
43802;BMP280;29429;51.074;13.764;2023-09-07T02:13:08;100727.28;;;15.54
43802;BMP280;29429;51.074;13.764;2023-09-07T02:15:40;100728.34;;;15.53
43802;BMP280;29429;51.074;13.764;2023-09-07T02:18:07;100721.72;;;15.49
43802;BMP280;29429;51.074;13.764;2023-09-07T02:20:35;100734.56;;;15.47
43802;BMP280;29429;51.074;13.764;2023-09-07T02:23:03;100719.66;;;15.45
43802;BMP280;29429;51.074;13.764;2023-09-07T02:25:30;100729.59;;;15.44
43802;BMP280;29429;51.074;13.764;2023-09-07T02:27:58;100716.38;;;15.43
43802;BMP280;29429;51.074;13.764;2023-09-07T02:30:26;100721.94;;;15.41
43802;BMP280;29429;51.074;13.764;2023-09-07T02:32:53;100721.34;;;15.39
43802;BMP280;29429;51.074;13.764;2023-09-07T02:35:21;100723.41;;;15.37
43802;BMP280;29429;51.074;13.764;2023-09-07T02:37:49;100718.44;;;15.34
43802;BMP280;29429;51.074;13.764;2023-09-07T02:40:17;100726.75;;;15.33
43802;BMP280;29429;51.074;13.764;2023-09-07T02:42:45;100725.31;;;15.30
43802;BMP280;29429;51.074;13.764;2023-09-07T02:45:14;100725.72;;;15.27
43802;BMP280;29429;51.074;13.764;2023-09-07T02:47:42;100717.03;;;15.25
43802;BMP280;29429;51.074;13.764;2023-09-07T02:50:09;100723.44;;;15.24
43802;BMP280;29429;51.074;13.764;2023-09-07T02:52:37;100724.47;;;15.23
43802;BMP280;29429;51.074;13.764;2023-09-07T02:55:05;100720.16;;;15.22
43802;BMP280;29429;51.074;13.764;2023-09-07T02:57:35;100730.06;;;15.21
43802;BMP280;29429;51.074;13.764;2023-09-07T03:00:03;100730.91;;;15.22
43802;BMP280;29429;51.074;13.764;2023-09-07T03:02:37;100726.56;;;15.21
43802;BMP280;29429;51.074;13.764;2023-09-07T03:05:05;100734.19;;;15.17
43802;BMP280;29429;51.074;13.764;2023-09-07T03:07:33;100731.31;;;15.19
43802;BMP280;29429;51.074;13.764;2023-09-07T03:10:00;100735.03;;;15.18
43802;BMP280;29429;51.074;13.764;2023-09-07T03:12:28;100731.75;;;15.16
43802;BMP280;29429;51.074;13.764;2023-09-07T03:14:55;100730.06;;;15.15
43802;BMP280;29429;51.074;13.764;2023-09-07T03:17:22;100733.00;;;15.13
43802;BMP280;29429;51.074;13.764;2023-09-07T03:19:50;100728.44;;;15.07
43802;BMP280;29429;51.074;13.764;2023-09-07T03:22:17;100725.16;;;15.05
43802;BMP280;29429;51.074;13.764;2023-09-07T03:24:44;100729.28;;;15.01
43802;BMP280;29429;51.074;13.764;2023-09-07T03:27:12;100721.44;;;14.93
43802;BMP280;29429;51.074;13.764;2023-09-07T03:29:41;100730.94;;;14.96
43802;BMP280;29429;51.074;13.764;2023-09-07T03:32:08;100723.09;;;14.94
43802;BMP280;29429;51.074;13.764;2023-09-07T03:34:36;100719.81;;;14.92
43802;BMP280;29429;51.074;13.764;2023-09-07T03:37:04;100711.94;;;14.84
43802;BMP280;29429;51.074;13.764;2023-09-07T03:39:33;100722.47;;;14.86
43802;BMP280;29429;51.074;13.764;2023-09-07T03:42:00;100722.69;;;14.84
43802;BMP280;29429;51.074;13.764;2023-09-07T03:44:27;100726.03;;;14.80
43802;BMP280;29429;51.074;13.764;2023-09-07T03:46:55;100730.75;;;14.78
43802;BMP280;29429;51.074;13.764;2023-09-07T03:49:23;100736.75;;;14.80
43802;BMP280;29429;51.074;13.764;2023-09-07T03:51:51;100731.81;;;14.77
43802;BMP280;29429;51.074;13.764;2023-09-07T03:54:18;100738.19;;;14.76
43802;BMP280;29429;51.074;13.764;2023-09-07T03:56:45;100736.75;;;14.73
43802;BMP280;29429;51.074;13.764;2023-09-07T03:59:12;100735.91;;;14.73
43802;BMP280;29429;51.074;13.764;2023-09-07T04:01:39;100737.78;;;14.72
43802;BMP280;29429;51.074;13.764;2023-09-07T04:04:07;100737.56;;;14.67
43802;BMP280;29429;51.074;13.764;2023-09-07T04:06:34;100730.56;;;14.66
43802;BMP280;29429;51.074;13.764;2023-09-07T04:09:02;100724.78;;;14.62
43802;BMP280;29429;51.074;13.764;2023-09-07T04:11:29;100736.13;;;14.64
43802;BMP280;29429;51.074;13.764;2023-09-07T04:13:56;100736.34;;;14.63
43802;BMP280;29429;51.074;13.764;2023-09-07T04:16:23;100735.91;;;14.59
43802;BMP280;29429;51.074;13.764;2023-09-07T04:18:50;100736.34;;;14.56
43802;BMP280;29429;51.074;13.764;2023-09-07T04:21:20;100742.13;;;14.60
43802;BMP280;29429;51.074;13.764;2023-09-07T04:23:50;100740.06;;;14.55
43802;BMP280;29429;51.074;13.764;2023-09-07T04:26:17;100740.47;;;14.52
43802;BMP280;29429;51.074;13.764;2023-09-07T04:29:19;100740.06;;;14.49
43802;BMP280;29429;51.074;13.764;2023-09-07T04:31:46;100742.75;;;14.42
43802;BMP280;29429;51.074;13.764;2023-09-07T04:34:13;100739.22;;;14.42
43802;BMP280;29429;51.074;13.764;2023-09-07T04:36:40;100745.84;;;14.39
43802;BMP280;29429;51.074;13.764;2023-09-07T04:39:07;100740.66;;;14.38
43802;BMP280;29429;51.074;13.764;2023-09-07T04:41:35;100742.53;;;14.37
43802;BMP280;29429;51.074;13.764;2023-09-07T04:44:09;100742.94;;;14.34
43802;BMP280;29429;51.074;13.764;2023-09-07T04:46:43;100732.75;;;14.30
43802;BMP280;29429;51.074;13.764;2023-09-07T04:49:18;100744.78;;;14.34
43802;BMP280;29429;51.074;13.764;2023-09-07T04:51:54;100745.41;;;14.36
43802;BMP280;29429;51.074;13.764;2023-09-07T04:54:28;100740.44;;;14.33
43802;BMP280;29429;51.074;13.764;2023-09-07T04:56:55;100743.34;;;14.38
43802;BMP280;29429;51.074;13.764;2023-09-07T04:59:22;100746.22;;;14.43
43802;BMP280;29429;51.074;13.764;2023-09-07T05:01:49;100738.59;;;14.46
43802;BMP280;29429;51.074;13.764;2023-09-07T05:04:16;100743.78;;;14.54
43802;BMP280;29429;51.074;13.764;2023-09-07T05:06:43;100750.41;;;14.58
43802;BMP280;29429;51.074;13.764;2023-09-07T05:09:11;100745.41;;;14.62
43802;BMP280;29429;51.074;13.764;2023-09-07T05:11:38;100751.22;;;14.66
43802;BMP280;29429;51.074;13.764;2023-09-07T05:14:05;100757.00;;;14.69
43802;BMP280;29429;51.074;13.764;2023-09-07T05:16:33;100750.59;;;14.70
43802;BMP280;29429;51.074;13.764;2023-09-07T05:19:01;100754.13;;;14.77
43802;BMP280;29429;51.074;13.764;2023-09-07T05:21:29;100759.06;;;14.80
43802;BMP280;29429;51.074;13.764;2023-09-07T05:23:56;100760.72;;;14.88
43802;BMP280;29429;51.074;13.764;2023-09-07T05:26:23;100757.41;;;14.92
43802;BMP280;29429;51.074;13.764;2023-09-07T05:28:52;100756.59;;;14.98
43802;BMP280;29429;51.074;13.764;2023-09-07T05:31:19;100755.94;;;15.03
43802;BMP280;29429;51.074;13.764;2023-09-07T05:33:46;100761.53;;;15.08
43802;BMP280;29429;51.074;13.764;2023-09-07T05:36:14;100766.06;;;15.14
43802;BMP280;29429;51.074;13.764;2023-09-07T05:38:40;100767.91;;;15.20
43802;BMP280;29429;51.074;13.764;2023-09-07T05:41:07;100774.09;;;15.27
43802;BMP280;29429;51.074;13.764;2023-09-07T05:43:35;100773.47;;;15.32
43802;BMP280;29429;51.074;13.764;2023-09-07T05:46:02;100779.66;;;15.39
43802;BMP280;29429;51.074;13.764;2023-09-07T05:48:29;100772.22;;;15.47
43802;BMP280;29429;51.074;13.764;2023-09-07T05:51:22;100780.06;;;15.55
43802;BMP280;29429;51.074;13.764;2023-09-07T05:54:05;100769.91;;;15.64
43802;BMP280;29429;51.074;13.764;2023-09-07T05:56:32;100777.94;;;15.70
43802;BMP280;29429;51.074;13.764;2023-09-07T05:59:00;100776.47;;;15.74
43802;BMP280;29429;51.074;13.764;2023-09-07T06:01:35;100774.38;;;15.83
43802;BMP280;29429;51.074;13.764;2023-09-07T06:04:50;100782.00;;;15.93
43802;BMP280;29429;51.074;13.764;2023-09-07T06:07:17;100779.06;;;16.01
43802;BMP280;29429;51.074;13.764;2023-09-07T06:09:45;100772.59;;;16.08
43802;BMP280;29429;51.074;13.764;2023-09-07T06:12:13;100778.56;;;16.17
43802;BMP280;29429;51.074;13.764;2023-09-07T06:14:41;100779.34;;;16.24
43802;BMP280;29429;51.074;13.764;2023-09-07T06:17:09;100776.38;;;16.32
43802;BMP280;29429;51.074;13.764;2023-09-07T06:19:39;100782.53;;;16.39
43802;BMP280;29429;51.074;13.764;2023-09-07T06:22:08;100784.97;;;16.47
43802;BMP280;29429;51.074;13.764;2023-09-07T06:24:35;100775.03;;;16.54
43802;BMP280;29429;51.074;13.764;2023-09-07T06:27:03;100773.72;;;16.63
43802;BMP280;29429;51.074;13.764;2023-09-07T06:29:31;100778.84;;;16.71
43802;BMP280;29429;51.074;13.764;2023-09-07T06:31:58;100783.94;;;16.79
43802;BMP280;29429;51.074;13.764;2023-09-07T06:34:26;100780.16;;;16.87
43802;BMP280;29429;51.074;13.764;2023-09-07T06:36:54;100778.00;;;16.95
43802;BMP280;29429;51.074;13.764;2023-09-07T06:39:25;100774.19;;;17.03
43802;BMP280;29429;51.074;13.764;2023-09-07T06:41:55;100788.22;;;17.12
43802;BMP280;29429;51.074;13.764;2023-09-07T06:44:27;100783.59;;;17.19
43802;BMP280;29429;51.074;13.764;2023-09-07T06:46:55;100779.56;;;17.28
43802;BMP280;29429;51.074;13.764;2023-09-07T06:49:23;100780.31;;;17.35
43802;BMP280;29429;51.074;13.764;2023-09-07T06:51:50;100774.63;;;17.43
43802;BMP280;29429;51.074;13.764;2023-09-07T06:54:18;100778.69;;;17.52
43802;BMP280;29429;51.074;13.764;2023-09-07T06:56:46;100784.66;;;17.60
43802;BMP280;29429;51.074;13.764;2023-09-07T06:59:14;100778.72;;;17.70
43802;BMP280;29429;51.074;13.764;2023-09-07T07:01:41;100780.28;;;17.78
43802;BMP280;29429;51.074;13.764;2023-09-07T07:04:09;100781.63;;;17.87
43802;BMP280;29429;51.074;13.764;2023-09-07T07:06:37;100779.44;;;17.95
43802;BMP280;29429;51.074;13.764;2023-09-07T07:09:05;100785.13;;;18.05
43802;BMP280;29429;51.074;13.764;2023-09-07T07:11:32;100779.19;;;18.15
43802;BMP280;29429;51.074;13.764;2023-09-07T07:14:00;100782.41;;;18.23
43802;BMP280;29429;51.074;13.764;2023-09-07T07:16:27;100777.25;;;18.34
43802;BMP280;29429;51.074;13.764;2023-09-07T07:18:55;100783.97;;;18.43
43802;BMP280;29429;51.074;13.764;2023-09-07T07:21:22;100774.50;;;18.52
43802;BMP280;29429;51.074;13.764;2023-09-07T07:23:52;100778.53;;;18.61
43802;BMP280;29429;51.074;13.764;2023-09-07T07:26:19;100778.78;;;18.71
43802;BMP280;29429;51.074;13.764;2023-09-07T07:28:47;100776.59;;;18.79
43802;BMP280;29429;51.074;13.764;2023-09-07T07:31:14;100774.34;;;18.88
43802;BMP280;29429;51.074;13.764;2023-09-07T07:33:45;100772.94;;;18.97
43802;BMP280;29429;51.074;13.764;2023-09-07T07:36:27;100782.94;;;19.08
43802;BMP280;29429;51.074;13.764;2023-09-07T07:39:39;100782.34;;;19.18
43802;BMP280;29429;51.074;13.764;2023-09-07T08:02:47;100775.03;;;20.04
43802;BMP280;29429;51.074;13.764;2023-09-07T08:06:46;100776.28;;;20.25
43802;BMP280;29429;51.074;13.764;2023-09-07T08:49:50;100726.88;;;22.31
43802;BMP280;29429;51.074;13.764;2023-09-07T08:52:34;100735.16;;;22.47
43802;BMP280;29429;51.074;13.764;2023-09-07T08:55:03;100732.00;;;22.60
43802;BMP280;29429;51.074;13.764;2023-09-07T08:57:40;100723.94;;;22.70
43802;BMP280;29429;51.074;13.764;2023-09-07T09:00:45;100725.13;;;22.79
43802;BMP280;29429;51.074;13.764;2023-09-07T09:03:14;100728.97;;;22.88
43802;BMP280;29429;51.074;13.764;2023-09-07T09:05:44;100729.88;;;22.98
43802;BMP280;29429;51.074;13.764;2023-09-07T09:08:47;100727.22;;;23.09
43802;BMP280;29429;51.074;13.764;2023-09-07T09:12:12;100732.44;;;23.15
43802;BMP280;29429;51.074;13.764;2023-09-07T09:20:33;100725.19;;;23.36
43802;BMP280;29429;51.074;13.764;2023-09-07T09:24:02;100723.34;;;23.46
43802;BMP280;29429;51.074;13.764;2023-09-07T09:26:54;100723.97;;;23.58
43802;BMP280;29429;51.074;13.764;2023-09-07T09:29:24;100728.09;;;23.71
43802;BMP280;29429;51.074;13.764;2023-09-07T09:31:52;100723.81;;;23.85
43802;BMP280;29429;51.074;13.764;2023-09-07T09:34:21;100720.56;;;23.98
43802;BMP280;29429;51.074;13.764;2023-09-07T09:37:22;100713.75;;;24.06
43802;BMP280;29429;51.074;13.764;2023-09-07T09:39:54;100717.34;;;24.16
43802;BMP280;29429;51.074;13.764;2023-09-07T09:42:29;100714.34;;;24.28
43802;BMP280;29429;51.074;13.764;2023-09-07T09:44:57;100708.06;;;24.22
43802;BMP280;29429;51.074;13.764;2023-09-07T09:47:53;100702.91;;;24.36
43802;BMP280;29429;51.074;13.764;2023-09-07T09:53:51;100702.91;;;24.61
43802;BMP280;29429;51.074;13.764;2023-09-07T09:56:32;100703.72;;;24.72
43802;BMP280;29429;51.074;13.764;2023-09-07T09:59:40;100696.34;;;24.77
43802;BMP280;29429;51.074;13.764;2023-09-07T10:02:09;100690.63;;;24.89
43802;BMP280;29429;51.074;13.764;2023-09-07T10:04:43;100701.25;;;24.96
43802;BMP280;29429;51.074;13.764;2023-09-07T10:07:11;100695.50;;;25.02
43802;BMP280;29429;51.074;13.764;2023-09-07T11:49:11;100634.19;;;26.89
43802;BMP280;29429;51.074;13.764;2023-09-07T11:51:41;100624.81;;;26.95
43802;BMP280;29429;51.074;13.764;2023-09-07T11:54:14;100629.66;;;27.03
43802;BMP280;29429;51.074;13.764;2023-09-07T11:57:13;100630.69;;;27.07
43802;BMP280;29429;51.074;13.764;2023-09-07T11:59:43;100624.84;;;27.13
43802;BMP280;29429;51.074;13.764;2023-09-07T12:02:25;100629.44;;;27.18
43802;BMP280;29429;51.074;13.764;2023-09-07T12:04:55;100635.44;;;27.20
43802;BMP280;29429;51.074;13.764;2023-09-07T12:11:25;100627.41;;;27.29
43802;BMP280;29429;51.074;13.764;2023-09-07T12:14:18;100617.75;;;27.31
43802;BMP280;29429;51.074;13.764;2023-09-07T12:17:15;100614.22;;;27.31
43802;BMP280;29429;51.074;13.764;2023-09-07T12:19:59;100605.41;;;27.34
43802;BMP280;29429;51.074;13.764;2023-09-07T12:22:27;100601.84;;;27.33
43802;BMP280;29429;51.074;13.764;2023-09-07T12:25:00;100602.34;;;27.35
43802;BMP280;29429;51.074;13.764;2023-09-07T12:27:42;100605.31;;;27.39
43802;BMP280;29429;51.074;13.764;2023-09-07T12:30:22;100606.16;;;27.39
43802;BMP280;29429;51.074;13.764;2023-09-07T12:32:52;100600.66;;;27.39
43802;BMP280;29429;51.074;13.764;2023-09-07T12:35:51;100604.50;;;27.38
43802;BMP280;29429;51.074;13.764;2023-09-07T12:38:23;100596.28;;;27.38
43802;BMP280;29429;51.074;13.764;2023-09-07T12:41:18;100589.69;;;27.39
43802;BMP280;29429;51.074;13.764;2023-09-07T12:44:48;100584.22;;;27.39
43802;BMP280;29429;51.074;13.764;2023-09-07T12:47:21;100588.56;;;27.45
43802;BMP280;29429;51.074;13.764;2023-09-07T12:49:48;100592.84;;;27.51
43802;BMP280;29429;51.074;13.764;2023-09-07T12:52:16;100582.09;;;27.55
43802;BMP280;29429;51.074;13.764;2023-09-07T12:54:43;100580.19;;;27.55
43802;BMP280;29429;51.074;13.764;2023-09-07T12:57:14;100574.91;;;27.59
43802;BMP280;29429;51.074;13.764;2023-09-07T12:59:45;100574.03;;;27.63
43802;BMP280;29429;51.074;13.764;2023-09-07T13:08:48;100579.28;;;27.60
43802;BMP280;29429;51.074;13.764;2023-09-07T13:11:21;100577.88;;;27.62
43802;BMP280;29429;51.074;13.764;2023-09-07T13:14:06;100568.03;;;27.61
43802;BMP280;29429;51.074;13.764;2023-09-07T13:16:40;100565.28;;;27.61
43802;BMP280;29429;51.074;13.764;2023-09-07T13:19:07;100567.22;;;27.61
43802;BMP280;29429;51.074;13.764;2023-09-07T13:21:35;100566.69;;;27.59
43802;BMP280;29429;51.074;13.764;2023-09-07T13:24:08;100559.81;;;27.61
43802;BMP280;29429;51.074;13.764;2023-09-07T13:26:42;100561.66;;;27.66
43802;BMP280;29429;51.074;13.764;2023-09-07T13:40:28;100554.31;;;27.61
43802;BMP280;29429;51.074;13.764;2023-09-07T13:42:57;100547.63;;;27.67
43802;BMP280;29429;51.074;13.764;2023-09-07T13:45:37;100550.00;;;27.74
43802;BMP280;29429;51.074;13.764;2023-09-07T13:48:29;100548.69;;;27.71
43802;BMP280;29429;51.074;13.764;2023-09-07T13:51:16;100548.97;;;27.70
43802;BMP280;29429;51.074;13.764;2023-09-07T13:53:47;100551.94;;;27.73
43802;BMP280;29429;51.074;13.764;2023-09-07T13:59:46;100544.88;;;27.67
43802;BMP280;29429;51.074;13.764;2023-09-07T14:02:19;100546.53;;;27.68
43802;BMP280;29429;51.074;13.764;2023-09-07T14:05:12;100546.03;;;27.66
43802;BMP280;29429;51.074;13.764;2023-09-07T14:07:42;100536.75;;;27.62
43802;BMP280;29429;51.074;13.764;2023-09-07T14:10:10;100540.53;;;27.66
43802;BMP280;29429;51.074;13.764;2023-09-07T14:13:01;100538.88;;;27.65
43802;BMP280;29429;51.074;13.764;2023-09-07T14:15:41;100546.09;;;27.61
43802;BMP280;29429;51.074;13.764;2023-09-07T14:18:09;100547.44;;;27.45
43802;BMP280;29429;51.074;13.764;2023-09-07T14:20:37;100548.47;;;27.49
43802;BMP280;29429;51.074;13.764;2023-09-07T14:23:04;100541.88;;;27.50
43802;BMP280;29429;51.074;13.764;2023-09-07T14:25:32;100540.25;;;27.49
43802;BMP280;29429;51.074;13.764;2023-09-07T14:27:59;100538.91;;;27.47
43802;BMP280;29429;51.074;13.764;2023-09-07T14:30:39;100540.81;;;27.46
43802;BMP280;29429;51.074;13.764;2023-09-07T14:33:15;100538.47;;;27.40
43802;BMP280;29429;51.074;13.764;2023-09-07T14:36:23;100540.94;;;27.36
43802;BMP280;29429;51.074;13.764;2023-09-07T14:38:56;100538.47;;;27.40
43802;BMP280;29429;51.074;13.764;2023-09-07T14:41:36;100541.22;;;27.40
43802;BMP280;29429;51.074;13.764;2023-09-07T14:44:27;100533.25;;;27.38
43802;BMP280;29429;51.074;13.764;2023-09-07T14:46:57;100541.78;;;27.37
43802;BMP280;29429;51.074;13.764;2023-09-07T14:49:25;100533.81;;;27.35
43802;BMP280;29429;51.074;13.764;2023-09-07T14:51:54;100541.53;;;27.33
43802;BMP280;29429;51.074;13.764;2023-09-07T14:54:22;100535.53;;;27.31
43802;BMP280;29429;51.074;13.764;2023-09-07T15:00:22;100531.81;;;27.22
43802;BMP280;29429;51.074;13.764;2023-09-07T15:03:04;100527.16;;;27.23
43802;BMP280;29429;51.074;13.764;2023-09-07T15:06:01;100523.09;;;27.20
43802;BMP280;29429;51.074;13.764;2023-09-07T15:08:29;100525.25;;;27.23
43802;BMP280;29429;51.074;13.764;2023-09-07T15:10:57;100522.50;;;27.23
43802;BMP280;29429;51.074;13.764;2023-09-07T15:13:34;100525.56;;;27.22
43802;BMP280;29429;51.074;13.764;2023-09-07T15:16:02;100521.16;;;27.20
43802;BMP280;29429;51.074;13.764;2023-09-07T15:18:36;100521.75;;;27.17
43802;BMP280;29429;51.074;13.764;2023-09-07T15:21:17;100516.28;;;27.17
43802;BMP280;29429;51.074;13.764;2023-09-07T15:27:43;100509.31;;;27.06
43802;BMP280;29429;51.074;13.764;2023-09-07T15:30:23;100519.44;;;27.06
43802;BMP280;29429;51.074;13.764;2023-09-07T15:32:54;100515.91;;;27.05
43802;BMP280;29429;51.074;13.764;2023-09-07T21:11:50;100601.28;;;19.68
43802;BMP280;29429;51.074;13.764;2023-09-07T21:14:47;100603.81;;;19.58
43802;BMP280;29429;51.074;13.764;2023-09-07T21:18:02;100600.19;;;19.52
43802;BMP280;29429;51.074;13.764;2023-09-07T21:25:32;100607.63;;;19.33
